createdAt,value
2019-04-22T00:01:56.944Z,9.37
2019-04-22T00:04:55.114Z,11.47
2019-04-22T00:08:04.659Z,8.73
2019-04-22T00:10:52.093Z,13.80
2019-04-22T00:13:29.185Z,11.50
2019-04-22T00:15:51.135Z,10.73
2019-04-22T00:18:52.989Z,13.23
2019-04-22T00:21:04.756Z,14.17
2019-04-22T00:23:39.221Z,10.30
2019-04-22T00:26:16.388Z,14.50
2019-04-22T00:28:49.980Z,11.17
2019-04-22T00:31:51.325Z,9.20
2019-04-22T00:34:16.401Z,11.13
2019-04-22T00:36:57.391Z,10.47
2019-04-22T00:39:35.837Z,10.90
2019-04-22T00:42:13.034Z,12.90
2019-04-22T00:44:45.109Z,11.00
2019-04-22T00:47:32.396Z,15.60
2019-04-22T00:52:49.247Z,12.63
2019-04-22T00:55:28.775Z,11.27
2019-04-22T00:58:05.265Z,11.87
2019-04-22T01:00:45.484Z,12.50
2019-04-22T01:03:37.025Z,11.37
2019-04-22T01:06:14.838Z,12.20
2019-04-22T01:11:33.226Z,13.07
2019-04-22T01:14:06.858Z,12.73
2019-04-22T01:16:48.872Z,11.07
2019-04-22T01:19:23.567Z,13.77
2019-04-22T01:22:13.313Z,11.57
2019-04-22T01:24:56.177Z,14.03
2019-04-22T01:27:44.871Z,15.10
2019-04-22T01:30:17.223Z,13.23
2019-04-22T01:32:52.899Z,11.77
2019-04-22T01:35:45.626Z,13.90
2019-04-22T01:38:23.367Z,12.93
2019-04-22T01:41:16.470Z,13.77
2019-04-22T01:43:53.759Z,20.83
2019-04-22T01:46:31.552Z,15.10
2019-04-22T01:49:19.144Z,12.53
2019-04-22T01:54:41.838Z,12.40
2019-04-22T01:57:03.285Z,9.13
2019-04-22T01:59:35.599Z,11.67
2019-04-22T02:02:19.088Z,10.43
2019-04-22T02:10:28.113Z,9.13
2019-04-22T02:13:04.494Z,9.57
2019-04-22T02:15:31.659Z,9.47
2019-04-22T02:18:17.986Z,11.00
2019-04-22T02:20:48.798Z,13.50
2019-04-22T02:26:32.911Z,8.50
2019-04-22T02:29:03.664Z,9.50
2019-04-22T02:31:45.399Z,11.03
2019-04-22T02:34:40.264Z,8.90
2019-04-22T02:39:42.423Z,10.30
2019-04-22T02:42:14.044Z,10.77
2019-04-22T02:44:57.958Z,9.07
2019-04-22T02:47:51.990Z,8.63
2019-04-22T02:50:28.620Z,10.17
2019-04-22T02:53:30.017Z,10.07
2019-04-22T02:56:05.547Z,8.67
2019-04-22T02:59:00.106Z,9.00
2019-04-22T03:09:20.671Z,9.60
2019-04-22T03:12:14.349Z,10.93
2019-04-22T03:14:38.259Z,10.50
2019-04-22T03:17:17.533Z,11.70
2019-04-22T03:25:28.763Z,8.90
2019-04-22T03:27:30.116Z,8.60
2019-04-22T03:33:11.198Z,12.40
2019-04-22T03:35:49.646Z,10.77
2019-04-22T03:38:35.007Z,11.97
2019-04-22T03:41:13.452Z,10.57
2019-04-22T03:43:56.428Z,11.27
2019-04-22T03:46:21.479Z,11.60
2019-04-22T03:49:17.670Z,9.00
2019-04-22T03:54:40.025Z,11.13
2019-04-22T03:59:56.923Z,10.53
2019-04-22T04:04:58.992Z,9.57
2019-04-22T04:10:27.836Z,8.43
2019-04-22T04:15:28.544Z,8.47
2019-04-22T04:17:54.983Z,12.63
2019-04-22T04:20:56.240Z,9.37
2019-04-22T04:28:56.771Z,9.37
2019-04-22T04:31:25.159Z,9.77
2019-04-22T04:36:28.781Z,12.17
2019-04-22T04:39:15.092Z,8.57
2019-04-22T04:41:52.074Z,9.13
2019-04-22T04:44:34.769Z,7.50
2019-04-22T04:52:57.703Z,8.53
2019-04-22T04:55:18.075Z,8.17
2019-04-22T04:58:09.597Z,8.33
2019-04-22T05:00:57.174Z,6.87
2019-04-22T05:03:45.021Z,8.20
2019-04-22T05:06:05.556Z,6.50
2019-04-22T05:09:10.023Z,6.50
2019-04-22T05:11:16.286Z,6.40
2019-04-22T05:13:59.177Z,6.93
2019-04-22T05:19:15.462Z,7.00
2019-04-22T05:21:38.509Z,6.03
2019-04-22T05:24:24.291Z,5.93
2019-04-22T05:26:57.021Z,6.80
2019-04-22T05:29:36.139Z,5.90
2019-04-22T05:32:01.445Z,5.80
2019-04-22T05:34:34.882Z,5.83
2019-04-22T05:37:14.650Z,5.70
2019-04-22T05:39:53.196Z,6.17
2019-04-22T05:42:39.440Z,6.83
2019-04-22T05:45:03.274Z,6.83
2019-04-22T05:52:57.382Z,5.53
2019-04-22T05:55:35.869Z,7.17
2019-04-22T05:58:08.642Z,5.33
2019-04-22T06:03:53.119Z,4.97
2019-04-22T06:06:17.839Z,6.97
2019-04-22T06:08:57.659Z,5.77
2019-04-22T06:11:36.226Z,5.70
2019-04-22T06:14:29.575Z,5.73
2019-04-22T06:17:11.249Z,6.80
2019-04-22T06:20:05.672Z,5.30
2019-04-22T06:23:00.288Z,4.93
2019-04-22T06:25:38.814Z,6.83
2019-04-22T06:28:11.861Z,7.70
2019-04-22T06:30:46.606Z,5.50
2019-04-22T06:33:15.241Z,5.00
2019-04-22T06:35:50.359Z,5.33
2019-04-22T06:44:10.976Z,5.07
2019-04-22T06:46:41.967Z,4.90
2019-04-22T06:55:11.742Z,4.40
2019-04-22T06:57:53.606Z,4.60
2019-04-22T07:00:31.488Z,4.87
2019-04-22T07:03:34.702Z,4.47
2019-04-22T07:09:06.670Z,4.63
2019-04-22T07:10:58.360Z,4.33
2019-04-22T07:13:50.334Z,4.23
2019-04-22T07:16:26.249Z,4.00
2019-04-22T07:18:54.957Z,5.07
2019-04-22T07:21:30.828Z,7.40
2019-04-22T07:26:44.959Z,5.07
2019-04-22T07:29:33.394Z,3.93
2019-04-22T07:32:06.850Z,5.37
2019-04-22T07:34:44.509Z,3.90
2019-04-22T07:37:28.302Z,8.77
2019-04-22T07:39:56.809Z,3.77
2019-04-22T07:42:45.747Z,4.40
2019-04-22T07:45:29.329Z,5.23
2019-04-22T07:48:09.620Z,3.80
2019-04-22T07:50:56.021Z,7.07
2019-04-22T07:53:21.942Z,3.83
2019-04-22T07:56:05.177Z,4.33
2019-04-22T07:59:13.859Z,3.90
2019-04-22T08:01:57.658Z,3.70
2019-04-22T08:04:30.051Z,3.80
2019-04-22T08:06:57.297Z,4.30
2019-04-22T08:12:02.889Z,3.63
2019-04-22T08:14:52.184Z,3.77
2019-04-22T08:20:18.900Z,4.33
2019-04-22T08:22:51.097Z,3.70
2019-04-22T08:25:26.555Z,3.90
2019-04-22T08:28:11.390Z,4.00
2019-04-22T08:30:56.671Z,4.00
2019-04-22T08:36:18.010Z,4.00
2019-04-22T08:38:54.254Z,5.90
2019-04-22T08:41:49.831Z,4.10
2019-04-22T08:44:09.159Z,4.53
2019-04-22T08:49:21.764Z,4.30
2019-04-22T08:52:03.870Z,4.47
2019-04-22T08:54:39.083Z,3.57
2019-04-22T08:57:15.538Z,4.37
2019-04-22T08:59:46.237Z,3.90
2019-04-22T09:02:25.853Z,6.07
2019-04-22T09:04:48.097Z,4.17
2019-04-22T09:07:31.562Z,4.23
2019-04-22T09:10:10.353Z,4.37
2019-04-22T09:12:56.885Z,4.20
2019-04-22T09:15:20.742Z,3.83
2019-04-22T09:17:58.158Z,4.47
2019-04-22T09:20:32.492Z,5.40
2019-04-22T09:23:21.731Z,4.27
2019-04-22T09:25:54.546Z,5.37
2019-04-22T09:28:44.635Z,4.30
2019-04-22T09:31:23.991Z,4.87
2019-04-22T09:34:02.684Z,6.77
2019-04-22T09:36:50.381Z,4.23
2019-04-22T09:39:24.385Z,7.43
2019-04-22T09:41:57.243Z,4.87
2019-04-22T09:44:36.671Z,4.67
2019-04-22T09:49:58.100Z,6.60
2019-04-22T09:52:30.803Z,6.87
2019-04-22T09:55:06.145Z,6.00
2019-04-22T09:57:52.988Z,4.73
2019-04-22T10:00:20.941Z,6.97
2019-04-22T10:03:00.902Z,6.27
2019-04-22T10:05:32.590Z,6.70
2019-04-22T10:08:16.591Z,4.17
2019-04-22T10:10:48.741Z,4.80
2019-04-22T10:13:31.368Z,4.87
2019-04-22T10:15:59.007Z,6.80
2019-04-22T10:18:34.016Z,4.53
2019-04-22T10:21:08.661Z,4.20
2019-04-22T10:23:47.171Z,6.90
2019-04-22T10:26:23.081Z,4.13
2019-04-22T10:28:52.519Z,5.03
2019-04-22T10:31:31.112Z,6.80
2019-04-22T10:33:49.471Z,5.50
2019-04-22T10:36:11.027Z,4.97
2019-04-22T10:38:56.249Z,4.77
2019-04-22T10:41:30.686Z,5.33
2019-04-22T10:44:05.333Z,6.97
2019-04-22T10:46:51.961Z,4.80
2019-04-22T10:49:26.453Z,5.10
2019-04-22T10:52:00.508Z,4.37
2019-04-22T10:54:33.809Z,4.20
2019-04-22T10:57:08.623Z,6.17
2019-04-22T10:59:42.670Z,4.73
2019-04-22T11:02:17.346Z,3.67
2019-04-22T11:04:59.554Z,5.37
2019-04-22T11:07:40.451Z,4.97
2019-04-22T11:10:27.399Z,4.07
2019-04-22T11:12:52.665Z,6.00
2019-04-22T11:15:26.618Z,5.53
2019-04-22T11:18:01.888Z,9.47
2019-04-22T11:20:35.881Z,4.00
2019-04-22T11:23:10.967Z,3.93
2019-04-22T11:25:44.015Z,4.70
2019-04-22T11:28:17.977Z,8.87
2019-04-22T11:31:06.196Z,5.13
2019-04-22T11:33:40.631Z,4.20
2019-04-22T11:36:13.834Z,4.53
2019-04-22T11:38:54.102Z,6.40
2019-04-22T11:41:23.562Z,5.33
2019-04-22T11:43:59.009Z,3.97
2019-04-22T11:46:33.602Z,4.30
2019-04-22T11:49:16.270Z,5.93
2019-04-22T11:52:01.034Z,4.17
2019-04-22T11:54:34.740Z,4.07
2019-04-22T11:57:08.474Z,3.97
2019-04-22T11:59:51.316Z,6.57
2019-04-22T12:02:27.226Z,4.80
2019-04-22T12:05:01.880Z,3.70
2019-04-22T12:07:47.063Z,6.83
2019-04-22T12:10:29.838Z,4.40
2019-04-22T12:13:06.204Z,4.50
2019-04-22T12:15:40.862Z,6.23
2019-04-22T12:18:17.261Z,4.47
2019-04-22T12:21:01.336Z,8.20
2019-04-22T12:23:35.028Z,5.03
2019-04-22T12:26:13.103Z,3.87
2019-04-22T12:28:44.762Z,7.17
2019-04-22T12:31:19.582Z,6.33
2019-04-22T12:33:53.322Z,4.73
2019-04-22T12:36:28.590Z,5.90
2019-04-22T12:39:03.260Z,4.80
2019-04-22T12:41:47.280Z,3.87
2019-04-22T12:44:20.478Z,4.03
2019-04-22T12:46:54.476Z,3.40
2019-04-22T12:49:28.145Z,4.23
2019-04-22T12:52:03.115Z,3.60
2019-04-22T12:54:37.320Z,7.47
2019-04-22T12:57:20.686Z,3.70
2019-04-22T12:59:55.409Z,5.10
2019-04-22T13:02:38.844Z,3.50
2019-04-22T13:05:22.809Z,4.03
2019-04-22T13:07:57.768Z,4.63
2019-04-22T13:10:42.973Z,9.23
2019-04-22T13:13:07.144Z,8.17
2019-04-22T13:15:41.285Z,5.17
2019-04-22T13:18:24.782Z,6.03
2019-04-22T13:20:50.612Z,6.47
2019-04-22T13:23:23.674Z,7.63
2019-04-22T13:26:12.768Z,4.67
2019-04-22T13:28:47.294Z,6.20
2019-04-22T13:31:30.854Z,4.83
2019-04-22T13:34:15.815Z,5.13
2019-04-22T13:36:43.600Z,4.28
2019-04-22T13:39:17.066Z,4.57
2019-04-22T13:41:57.654Z,4.53
2019-04-22T13:44:25.296Z,4.47
2019-04-22T13:47:17.053Z,5.15
2019-04-22T13:50:32.921Z,4.10
2019-04-22T13:53:10.595Z,4.35
2019-04-22T13:55:41.205Z,3.95
2019-04-22T13:58:01.038Z,3.70
2019-04-22T14:00:22.587Z,3.87
2019-04-22T14:03:13.908Z,5.17
2019-04-22T14:05:48.817Z,7.33
2019-04-22T14:08:23.064Z,5.27
2019-04-22T14:11:20.699Z,3.73
2019-04-22T14:13:41.885Z,6.12
2019-04-22T14:16:15.557Z,3.30
2019-04-22T14:18:49.774Z,7.37
2019-04-22T14:21:23.189Z,4.67
2019-04-22T14:23:58.537Z,6.63
2019-04-22T14:26:45.233Z,7.55
2019-04-22T14:29:08.151Z,4.05
2019-04-22T14:31:42.477Z,3.95
2019-04-22T14:34:16.907Z,5.17
2019-04-22T14:36:51.194Z,3.97
2019-04-22T14:39:26.189Z,4.30
2019-04-22T14:42:18.960Z,5.28
2019-04-22T14:47:36.119Z,3.62
2019-04-22T14:50:10.239Z,5.40
2019-04-22T14:52:47.476Z,9.13
2019-04-22T14:55:13.803Z,3.75
2019-04-22T14:57:50.876Z,6.30
2019-04-22T15:00:26.333Z,6.92
2019-04-22T15:02:59.855Z,5.97
2019-04-22T15:05:34.374Z,6.75
2019-04-22T15:08:19.201Z,6.20
2019-04-22T15:10:54.041Z,4.65
2019-04-22T15:13:43.419Z,4.20
2019-04-22T15:16:44.945Z,5.20
2019-04-22T15:19:29.767Z,4.60
2019-04-22T15:22:20.958Z,7.57
2019-04-22T15:24:56.750Z,5.60
2019-04-22T15:27:31.194Z,5.50
2019-04-22T15:30:15.088Z,4.63
2019-04-22T15:32:49.333Z,4.23
2019-04-22T15:35:25.143Z,4.30
2019-04-22T15:38:01.398Z,5.67
2019-04-22T15:40:36.448Z,4.57
2019-04-22T15:43:29.749Z,5.23
2019-04-22T15:46:11.744Z,3.67
2019-04-22T15:48:46.290Z,2.90
2019-04-22T15:51:32.468Z,4.97
2019-04-22T15:54:17.218Z,5.30
2019-04-22T15:56:52.437Z,5.47
2019-04-22T15:59:54.091Z,3.50
2019-04-22T16:02:12.079Z,3.20
2019-04-22T16:04:56.721Z,3.17
2019-04-22T16:07:40.068Z,3.00
2019-04-22T16:10:15.447Z,5.33
2019-04-22T16:12:57.504Z,4.60
2019-04-22T16:15:26.595Z,6.17
2019-04-22T16:18:03.308Z,8.17
2019-04-22T16:20:58.658Z,5.93
2019-04-22T16:23:56.508Z,5.37
2019-04-22T16:26:58.346Z,6.13
2019-04-22T16:29:49.708Z,5.07
2019-04-22T16:32:25.298Z,5.07
2019-04-22T16:35:08.803Z,3.23
2019-04-22T16:37:42.934Z,5.00
2019-04-22T16:40:16.778Z,4.30
2019-04-22T16:42:56.949Z,2.77
2019-04-22T16:45:25.673Z,4.03
2019-04-22T16:48:00.000Z,3.47
2019-04-22T16:50:35.633Z,2.73
2019-04-22T16:53:10.207Z,4.03
2019-04-22T16:56:06.849Z,3.13
2019-04-22T16:58:41.012Z,3.57
2019-04-22T17:01:52.758Z,6.83
2019-04-22T17:05:15.775Z,3.73
2019-04-22T17:07:50.012Z,7.00
2019-04-22T17:10:23.764Z,8.50
2019-04-22T17:13:03.736Z,3.30
2019-04-22T17:15:45.121Z,2.73
2019-04-22T17:18:19.401Z,4.03
2019-04-22T17:20:54.886Z,3.63
2019-04-22T17:23:29.671Z,3.43
2019-04-22T17:26:04.435Z,3.87
2019-04-22T17:28:41.435Z,2.77
2019-04-22T17:31:16.454Z,5.10
2019-04-22T17:33:50.822Z,2.70
2019-04-22T17:36:24.378Z,3.83
2019-04-22T17:39:15.824Z,3.40
2019-04-22T17:41:50.561Z,3.23
2019-04-22T17:44:41.373Z,2.90
2019-04-22T17:47:28.836Z,2.90
2019-04-22T17:50:21.465Z,2.37
2019-04-22T17:53:00.861Z,4.60
2019-04-22T17:55:49.255Z,6.90
2019-04-22T17:58:34.767Z,3.33
2019-04-22T18:01:09.322Z,4.87
2019-04-22T18:03:29.062Z,4.10
2019-04-22T18:06:00.364Z,4.03
2019-04-22T18:08:50.182Z,3.87
2019-04-22T18:11:33.442Z,8.00
2019-04-22T18:14:11.695Z,4.37
2019-04-22T18:16:40.397Z,4.43
2019-04-22T18:19:16.658Z,11.70
2019-04-22T18:21:46.432Z,4.13
2019-04-22T18:24:07.735Z,8.63
2019-04-22T18:27:07.354Z,5.67
2019-04-22T18:29:48.471Z,8.50
2019-04-22T18:32:13.581Z,5.70
2019-04-22T18:34:55.493Z,6.60
2019-04-22T18:37:40.981Z,4.93
2019-04-22T18:40:15.122Z,4.63
2019-04-22T18:42:53.908Z,4.57
2019-04-22T18:45:37.341Z,4.50
2019-04-22T18:47:48.888Z,5.67
2019-04-22T18:50:45.202Z,4.93
2019-04-22T18:53:38.663Z,4.17
2019-04-22T18:56:15.279Z,4.10
2019-04-22T18:58:53.706Z,5.03
2019-04-22T19:01:19.723Z,3.70
2019-04-22T19:04:01.350Z,3.23
2019-04-22T19:06:52.265Z,7.73
2019-04-22T19:09:29.562Z,3.07
2019-04-22T19:14:51.162Z,7.67
2019-04-22T19:17:52.486Z,5.50
2019-04-22T19:20:16.966Z,5.10
2019-04-22T19:22:58.923Z,7.20
2019-04-22T19:25:26.177Z,4.53
2019-04-22T19:28:27.817Z,4.80
2019-04-22T19:31:09.407Z,5.03
2019-04-22T19:33:53.866Z,4.80
2019-04-22T19:36:20.990Z,5.73
2019-04-22T19:38:52.504Z,5.40
2019-04-22T19:41:37.433Z,4.70
2019-04-22T19:44:17.742Z,4.93
2019-04-22T19:47:06.352Z,5.73
2019-04-22T19:49:47.743Z,5.60
2019-04-22T19:52:21.032Z,6.77
2019-04-22T19:54:46.726Z,5.20
2019-04-22T19:57:18.629Z,4.93
2019-04-22T20:00:00.019Z,8.87
2019-04-22T20:02:51.415Z,7.83
2019-04-22T20:05:46.697Z,9.27
2019-04-22T20:08:31.125Z,7.23
2019-04-22T20:11:19.002Z,6.93
2019-04-22T20:14:03.271Z,3.77
2019-04-22T20:16:27.499Z,4.93
2019-04-22T20:19:12.293Z,7.17
2019-04-22T20:21:50.006Z,6.67
2019-04-22T20:24:16.898Z,8.13
2019-04-22T20:27:10.580Z,3.63
2019-04-22T20:29:41.740Z,4.87
2019-04-22T20:32:27.869Z,5.37
2019-04-22T20:35:15.190Z,8.03
2019-04-22T20:37:58.281Z,6.30
2019-04-22T20:40:38.835Z,5.80
2019-04-22T20:43:29.259Z,4.23
2019-04-22T20:46:05.766Z,9.27
2019-04-22T20:48:44.107Z,7.70
2019-04-22T20:51:17.244Z,9.73
2019-04-22T20:53:47.918Z,7.70
2019-04-22T20:56:48.227Z,4.70
2019-04-22T20:59:31.470Z,4.20
2019-04-22T21:02:07.653Z,4.57
2019-04-22T21:04:50.353Z,4.50
2019-04-22T21:07:31.390Z,3.97
2019-04-22T21:10:09.115Z,5.10
2019-04-22T21:12:38.660Z,3.60
2019-04-22T21:15:35.388Z,7.13
2019-04-22T21:18:01.171Z,4.87
2019-04-22T21:20:49.565Z,5.73
2019-04-22T21:38:15.238Z,5.73
2019-04-22T21:40:48.875Z,4.93
2019-04-22T21:43:25.581Z,6.30
2019-04-22T21:46:11.952Z,7.50
2019-04-22T21:49:25.154Z,4.83
2019-04-22T21:51:58.406Z,5.57
2019-04-22T21:54:48.959Z,8.40
2019-04-22T21:57:46.138Z,5.07
2019-04-22T22:00:24.991Z,8.33
2019-04-22T22:02:54.528Z,5.10
2019-04-22T22:05:21.765Z,6.83
2019-04-22T22:07:53.409Z,5.93
2019-04-22T22:10:40.294Z,7.87
2019-04-22T22:23:54.587Z,5.83
2019-04-22T22:26:19.242Z,6.07
2019-04-22T22:29:05.213Z,6.67
2019-04-22T22:31:43.200Z,7.50
2019-04-22T22:34:13.656Z,9.13
2019-04-22T22:36:36.335Z,6.43
2019-04-22T22:39:23.697Z,8.47
2019-04-22T22:42:01.942Z,7.33
2019-04-22T22:44:44.206Z,7.37
2019-04-22T22:47:30.476Z,8.13
2019-04-22T22:50:09.050Z,6.57
2019-04-22T22:55:37.576Z,7.13
2019-04-22T22:58:11.400Z,7.13
2019-04-22T23:00:44.061Z,6.50
2019-04-22T23:06:02.936Z,8.50
2019-04-22T23:08:38.302Z,9.37
2019-04-22T23:11:11.758Z,8.33
2019-04-22T23:13:49.272Z,8.23
2019-04-22T23:16:15.329Z,8.67
2019-04-22T23:18:59.718Z,8.93
2019-04-22T23:21:39.760Z,7.40
2019-04-22T23:24:50.117Z,7.83
2019-04-22T23:27:42.091Z,8.70
2019-04-22T23:30:47.562Z,7.63
2019-04-22T23:33:57.365Z,9.57
2019-04-22T23:36:37.004Z,6.93
2019-04-22T23:39:27.419Z,9.53
2019-04-22T23:42:14.586Z,8.10
2019-04-22T23:44:56.634Z,7.77
2019-04-22T23:47:35.599Z,8.83
2019-04-22T23:50:30.851Z,7.17
2019-04-22T23:53:04.764Z,9.53
2019-04-22T23:55:44.766Z,10.50
2019-04-22T23:58:21.098Z,11.30
